Time;durP1;ratioP1;P1;durP2;ratioP2;P2;SDS_P1;SDS_P2;PMS_P1;PMS_P2;Temp;Humidity;BMP_temperature;BMP_pressure;BME280_temperature;BME280_humidity;BME280_pressure;Samples;Min_cycle;Max_cycle;Signal;HPM_P1;HPM_P2
2021/04/21 00:02:10;;;;;;;7.80;7.00;;;;;;;5.02;100.00;97756.09;5031608;28;20233;-81
2021/04/21 00:04:38;;;;;;;7.60;6.90;;;;;;;5.12;100.00;97756.41;5031524;28;20293;-81
2021/04/21 00:07:06;;;;;;;8.37;7.47;;;;;;;4.84;100.00;97763.19;5031448;28;20234;-80
2021/04/21 00:09:34;;;;;;;8.87;8.07;;;;;;;5.16;100.00;97770.94;5031265;28;20653;-81
2021/04/21 00:12:01;;;;;;;8.37;7.57;;;;;;;5.36;100.00;97785.44;5031227;28;20242;-81
2021/04/21 00:14:28;;;;;;;8.90;8.10;;;;;;;5.40;100.00;97803.44;5031174;28;20205;-81
2021/04/21 00:16:58;;;;;;;10.50;8.67;;;;;;;5.42;100.00;97808.56;5031453;28;20203;-81
2021/04/21 00:19:27;;;;;;;8.73;7.83;;;;;;;5.44;100.00;97807.56;5031253;28;20195;-81
2021/04/21 00:21:59;;;;;;;8.87;8.00;;;;;;;5.28;100.00;97813.72;5031194;28;20205;-81
2021/04/21 00:24:29;;;;;;;9.37;7.50;;;;;;;5.20;100.00;97819.38;5031339;28;20210;-81
2021/04/21 00:26:58;;;;;;;9.70;8.70;;;;;;;5.16;100.00;97823.06;5030925;28;20299;-81
2021/04/21 00:29:28;;;;;;;11.50;8.80;;;;;;;5.24;100.00;97823.50;5031273;28;20290;-81
2021/04/21 00:31:58;;;;;;;9.23;8.33;;;;;;;5.24;100.00;97818.28;5031084;28;20237;-81
2021/04/21 00:34:27;;;;;;;8.33;7.43;;;;;;;5.14;100.00;97817.13;5031383;28;20227;-81
2021/04/21 00:36:57;;;;;;;8.77;7.43;;;;;;;5.12;100.00;97811.16;5030866;28;20706;-80
2021/04/21 00:39:24;;;;;;;9.40;7.83;;;;;;;4.94;100.00;97810.41;5032084;28;20307;-81
2021/04/21 00:41:59;;;;;;;8.67;7.33;;;;;;;4.55;100.00;97797.84;5034834;28;20224;-80
2021/04/21 00:44:40;;;;;;;9.43;7.23;;;;;;;4.69;100.00;97805.75;5034547;28;20383;-80
2021/04/21 00:47:09;;;;;;;9.97;8.97;;;;;;;4.79;100.00;97819.94;5034739;28;20551;-80
2021/04/21 00:49:50;;;;;;;10.63;8.30;;;;;;;4.90;100.00;97825.38;5034913;28;20285;-81
2021/04/21 00:52:24;;;;;;;12.20;9.60;;;;;;;4.96;100.00;97826.81;5034917;28;20273;-80
2021/04/21 00:55:01;;;;;;;11.47;9.27;;;;;;;4.89;100.00;97834.13;5034489;28;20218;-81
2021/04/21 00:57:39;;;;;;;10.13;8.83;;;;;;;4.82;100.00;97843.22;5034591;28;20248;-80
2021/04/21 01:00:09;;;;;;;10.03;8.97;;;;;;;4.90;100.00;97842.78;5034609;28;20222;-80
2021/04/21 01:02:41;;;;;;;10.03;8.80;;;;;;;4.71;100.00;97842.94;5034271;28;20686;-80
2021/04/21 01:05:13;;;;;;;12.17;9.57;;;;;;;4.84;100.00;97841.34;5034541;28;20183;-80
2021/04/21 01:07:42;;;;;;;11.70;10.10;;;;;;;4.83;100.00;97838.84;5034264;28;20277;-80
2021/04/21 01:10:12;;;;;;;12.63;10.67;;;;;;;4.55;100.00;97829.94;5034221;28;20202;-80
2021/04/21 01:12:40;;;;;;;12.33;10.17;;;;;;;4.70;100.00;97836.06;5033903;28;20234;-81
2021/04/21 01:15:11;;;;;;;10.00;8.97;;;;;;;5.07;100.00;97845.28;5034218;28;20207;-80
2021/04/21 01:17:41;;;;;;;9.67;8.67;;;;;;;5.07;100.00;97847.91;5034076;28;20773;-80
2021/04/21 01:20:16;;;;;;;8.67;7.87;;;;;;;4.98;100.00;97837.97;5034197;28;20672;-79
2021/04/21 01:23:13;;;;;;;8.40;7.50;;;;;;;5.06;100.00;97838.41;5035591;28;20214;-80
2021/04/21 01:25:51;;;;;;;8.87;7.97;;;;;;;4.81;100.00;97832.88;5018495;28;20199;-80
2021/04/21 01:28:23;;;;;;;9.27;8.13;;;;;;;4.53;100.00;97818.75;5016385;28;20202;-80
2021/04/21 01:30:52;;;;;;;8.50;7.60;;;;;;;4.29;100.00;97813.09;5033860;28;20305;-80
2021/04/21 01:33:22;;;;;;;10.17;8.73;;;;;;;4.27;100.00;97818.38;5029104;28;20318;-80
2021/04/21 01:35:55;;;;;;;9.37;8.20;;;;;;;4.25;100.00;97811.56;5033426;28;20207;-80
2021/04/21 01:38:24;;;;;;;8.87;8.00;;;;;;;4.49;100.00;97825.03;5031806;28;20195;-80
2021/04/21 01:40:54;;;;;;;9.30;8.20;;;;;;;4.44;100.00;97830.50;5033717;28;20198;-80
2021/04/21 01:43:24;;;;;;;10.10;8.40;;;;;;;4.50;100.00;97826.72;5029381;28;20294;-80
2021/04/21 01:45:57;;;;;;;9.20;8.20;;;;;;;4.71;100.00;97830.78;5033045;28;20273;-80
2021/04/21 01:48:26;;;;;;;10.83;8.83;;;;;;;4.49;100.00;97823.28;5033573;28;20669;-79
2021/04/21 01:50:54;;;;;;;9.43;8.43;;;;;;;4.37;100.00;97826.56;5033023;28;20249;-80
2021/04/21 01:53:35;;;;;;;9.27;8.23;;;;;;;3.39;100.00;97810.78;5031197;28;20310;-80
2021/04/21 01:56:08;;;;;;;10.10;8.50;;;;;;;3.96;100.00;97823.53;5033273;28;20627;-80
2021/04/21 01:58:50;;;;;;;8.47;7.67;;;;;;;3.88;100.00;97826.53;5021528;28;20242;-80
2021/04/21 02:01:30;;;;;;;10.23;9.20;;;;;;;3.98;100.00;97829.47;5033594;28;20717;-79
2021/04/21 02:04:07;;;;;;;9.63;8.50;;;;;;;4.13;100.00;97843.47;5033141;28;20190;-80
2021/04/21 02:07:00;;;;;;;10.37;8.93;;;;;;;4.18;100.00;97839.69;5033012;28;20728;-80
2021/04/21 02:09:48;;;;;;;10.87;9.20;;;;;;;4.48;100.00;97850.25;4970306;28;20372;-80
2021/04/21 02:12:51;;;;;;;11.60;10.00;;;;;;;4.70;100.00;97854.28;5032930;28;20303;-79
2021/04/21 02:15:26;;;;;;;10.17;8.97;;;;;;;4.79;100.00;97871.19;5014460;28;20191;-80
2021/04/21 02:18:01;;;;;;;13.83;9.80;;;;;;;4.95;100.00;97874.63;5032065;28;20277;-79
2021/04/21 02:20:34;;;;;;;11.70;9.93;;;;;;;4.85;100.00;97874.31;5013299;28;20207;-80
2021/04/21 02:23:07;;;;;;;11.03;9.37;;;;;;;4.93;100.00;97881.69;5015788;28;20206;-80
2021/04/21 02:25:50;;;;;;;10.53;9.40;;;;;;;4.66;100.00;97871.84;5028938;28;20645;-80
2021/04/21 02:28:23;;;;;;;21.70;15.20;;;;;;;4.34;100.00;97857.13;5032018;28;20232;-81
2021/04/21 02:30:59;;;;;;;13.70;11.20;;;;;;;4.48;100.00;97867.63;5032727;28;20266;-80
2021/04/21 02:33:38;;;;;;;10.40;9.40;;;;;;;4.50;100.00;97858.81;5025494;28;20215;-79
2021/04/21 02:36:10;;;;;;;10.60;9.50;;;;;;;4.71;100.00;97858.56;5012768;28;20640;-81
2021/04/21 02:38:43;;;;;;;10.17;9.17;;;;;;;4.71;100.00;97856.81;5016640;28;20234;-79
2021/04/21 02:41:14;;;;;;;10.70;9.20;;;;;;;4.51;100.00;97847.47;5032906;28;20202;-80
2021/04/21 02:44:10;;;;;;;10.83;9.67;;;;;;;4.48;100.00;97839.00;5023003;28;20199;-81
2021/04/21 02:46:43;;;;;;;9.60;8.67;;;;;;;4.29;100.00;97837.38;5026813;28;20206;-83
2021/04/21 02:49:20;;;;;;;9.97;9.00;;;;;;;4.48;100.00;97852.00;5032377;28;20199;-80
2021/04/21 02:51:51;;;;;;;10.27;9.17;;;;;;;4.67;100.00;97851.84;5032320;28;20195;-81
2021/04/21 02:54:21;;;;;;;10.20;9.10;;;;;;;4.60;100.00;97846.13;5030192;28;20216;-79
2021/04/21 02:56:57;;;;;;;10.70;9.23;;;;;;;4.44;100.00;97846.13;5022008;28;20330;-79
2021/04/21 02:59:32;;;;;;;10.33;8.43;;;;;;;4.27;100.00;97836.59;5024324;28;20202;-81
2021/04/21 03:02:06;;;;;;;46.50;26.43;;;;;;;4.31;100.00;97837.28;5032037;28;20269;-80
2021/04/21 03:04:45;;;;;;;37.33;23.27;;;;;;;4.40;100.00;97857.63;5020018;28;20207;-81
2021/04/21 03:07:18;;;;;;;38.10;22.40;;;;;;;4.36;100.00;97845.69;5012219;28;20195;-80
2021/04/21 03:09:51;;;;;;;35.83;21.20;;;;;;;4.33;100.00;97853.69;5026126;28;20217;-80
2021/04/21 03:12:23;;;;;;;24.03;14.07;;;;;;;4.23;100.00;97849.88;5031728;28;20273;-79
2021/04/21 03:14:56;;;;;;;13.23;11.00;;;;;;;4.13;100.00;97843.47;5018513;28;20250;-80
2021/04/21 03:17:24;;;;;;;12.13;9.97;;;;;;;4.18;100.00;97841.44;5011132;28;20195;-80
2021/04/21 03:19:53;;;;;;;9.40;8.37;;;;;;;4.34;100.00;97837.13;5021720;28;20703;-80
2021/04/21 03:22:23;;;;;;;10.13;8.57;;;;;;;4.27;100.00;97841.81;5010750;28;20215;-80
2021/04/21 03:24:58;;;;;;;10.27;9.30;;;;;;;4.33;100.00;97839.78;5013567;28;20291;-80
2021/04/21 03:27:30;;;;;;;11.20;9.87;;;;;;;4.50;100.00;97842.34;5011004;28;20245;-80
2021/04/21 03:30:00;;;;;;;10.10;9.10;;;;;;;4.59;100.00;97841.84;5026773;28;20762;-80
2021/04/21 03:32:33;;;;;;;14.13;11.20;;;;;;;4.55;100.00;97847.31;5030215;28;20762;-80
2021/04/21 03:35:02;;;;;;;11.67;10.50;;;;;;;4.74;100.00;97850.59;5015182;28;20206;-80
2021/04/21 03:37:41;;;;;;;12.40;9.87;;;;;;;4.37;100.00;97842.19;5011074;28;20199;-80
2021/04/21 03:40:10;;;;;;;28.13;22.23;;;;;;;3.98;100.00;97825.13;5028546;28;20198;-79
2021/04/21 03:42:38;;;;;;;23.00;16.03;;;;;;;3.82;100.00;97829.44;5030347;28;20737;-80
2021/04/21 03:45:06;;;;;;;30.87;24.87;;;;;;;4.11;100.00;97837.50;5011181;28;20688;-80
2021/04/21 03:47:35;;;;;;;98.10;59.23;;;;;;;4.04;100.00;97835.19;5010740;28;20210;-80
2021/04/21 03:50:05;;;;;;;99.90;68.70;;;;;;;3.90;100.00;97837.69;5013316;28;20668;-80
2021/04/21 03:52:34;;;;;;;42.33;31.67;;;;;;;3.83;100.00;97836.31;5010954;28;20199;-80
2021/04/21 03:55:02;;;;;;;61.30;40.67;;;;;;;4.00;100.00;97846.69;5030915;28;20222;-81
2021/04/21 03:57:34;;;;;;;24.20;20.43;;;;;;;3.79;100.00;97840.00;5029951;28;20202;-81
2021/04/21 04:00:05;;;;;;;16.37;14.20;;;;;;;3.86;100.00;97837.94;5027434;28;20203;-81
2021/04/21 04:02:38;;;;;;;17.53;15.53;;;;;;;3.94;100.00;97841.78;5030199;28;20277;-80
2021/04/21 04:05:08;;;;;;;22.00;19.70;;;;;;;3.65;100.00;97827.69;5013150;28;20741;-80
2021/04/21 04:07:41;;;;;;;45.20;33.90;;;;;;;3.87;100.00;97831.78;5010814;28;20626;-80
2021/04/21 04:10:13;;;;;;;19.53;17.43;;;;;;;4.10;100.00;97835.81;5010392;28;20195;-80
2021/04/21 04:12:43;;;;;;;14.67;13.07;;;;;;;4.14;100.00;97839.94;5010236;28;20330;-80
2021/04/21 04:15:13;;;;;;;13.40;11.23;;;;;;;4.27;100.00;97844.41;5012910;28;20192;-80
2021/04/21 04:17:46;;;;;;;11.03;9.23;;;;;;;4.41;100.00;97858.47;5015801;28;20199;-80
2021/04/21 04:20:15;;;;;;;9.87;8.83;;;;;;;4.28;100.00;97855.66;5015571;28;20188;-82
2021/04/21 04:22:44;;;;;;;9.63;8.63;;;;;;;4.39;100.00;97849.88;5015343;28;20203;-79
2021/04/21 04:25:14;;;;;;;9.87;8.87;;;;;;;4.30;100.00;97859.03;5015451;28;20245;-80
2021/04/21 04:27:43;;;;;;;9.40;8.13;;;;;;;4.12;100.00;97853.03;5015059;28;20262;-81
2021/04/21 04:30:11;;;;;;;11.80;10.60;;;;;;;4.03;100.00;97853.50;5015666;28;20200;-82
2021/04/21 04:32:40;;;;;;;10.27;8.83;;;;;;;4.11;100.00;97859.16;5014873;28;20227;-79
2021/04/21 04:35:10;;;;;;;11.43;9.83;;;;;;;4.14;100.00;97856.38;5015329;28;20203;-79
2021/04/21 04:37:39;;;;;;;9.77;8.77;;;;;;;4.31;100.00;97862.47;5014590;28;20250;-79
2021/04/21 04:40:09;;;;;;;13.43;10.00;;;;;;;4.27;100.00;97865.25;5014651;28;20238;-79
2021/04/21 04:42:37;;;;;;;28.90;16.93;;;;;;;4.31;100.00;97859.88;5014991;28;20290;-79
2021/04/21 04:45:07;;;;;;;25.17;18.20;;;;;;;4.23;100.00;97861.13;5015161;28;20235;-79
2021/04/21 04:47:42;;;;;;;29.47;20.33;;;;;;;4.55;100.00;97873.34;5014655;28;20298;-80
2021/04/21 04:50:12;;;;;;;22.13;16.73;;;;;;;4.73;100.00;97864.53;5014994;28;20188;-80
2021/04/21 04:52:41;;;;;;;26.90;19.23;;;;;;;4.87;100.00;97867.22;5014811;28;20191;-79
2021/04/21 04:55:10;;;;;;;19.97;16.43;;;;;;;4.61;100.00;97855.66;5015062;28;20203;-79
2021/04/21 04:57:42;;;;;;;31.17;24.03;;;;;;;4.78;100.00;97865.16;5014566;28;20257;-79
2021/04/21 05:00:11;;;;;;;23.77;21.20;;;;;;;4.80;100.00;97857.25;5014945;28;20184;-80
2021/04/21 05:02:42;;;;;;;20.97;18.03;;;;;;;4.91;100.00;97860.94;5014702;28;20282;-81
2021/04/21 05:05:11;;;;;;;18.73;16.67;;;;;;;5.15;100.00;97865.72;5014809;28;20210;-80
2021/04/21 05:07:43;;;;;;;17.80;15.67;;;;;;;5.18;100.00;97868.16;5014564;28;20204;-80
2021/04/21 05:10:17;;;;;;;15.57;12.93;;;;;;;5.21;100.00;97874.03;5014480;28;20199;-81
2021/04/21 05:12:45;;;;;;;13.40;11.63;;;;;;;5.45;100.00;97895.28;5014310;28;20362;-81
2021/04/21 05:15:56;;;;;;;13.27;11.97;;;;;;;5.55;100.00;97903.41;5014646;28;20208;-81
2021/04/21 05:18:59;;;;;;;12.33;11.00;;;;;;;5.77;100.00;97897.81;5014243;28;20660;-81
2021/04/21 05:22:05;;;;;;;13.47;11.93;;;;;;;5.84;100.00;97901.72;4992015;28;20203;-81
2021/04/21 05:25:16;;;;;;;21.20;17.60;;;;;;;6.02;100.00;97897.22;5014450;28;20771;-81
2021/04/21 05:28:10;;;;;;;19.70;16.47;;;;;;;6.18;100.00;97905.00;5013212;28;20199;-81
2021/04/21 05:31:12;;;;;;;16.67;14.17;;;;;;;6.30;100.00;97914.72;5014273;28;20188;-81
2021/04/21 05:34:23;;;;;;;11.83;10.63;;;;;;;6.52;100.00;97918.66;5013809;28;20593;-81
2021/04/21 05:37:54;;;;;;;24.33;19.50;;;;;;;6.78;100.00;97914.44;5014291;28;20231;-81
2021/04/21 05:41:07;;;;;;;21.70;16.97;;;;;;;6.89;100.00;97918.09;5014084;28;20286;-81
2021/04/21 05:44:19;;;;;;;18.70;15.83;;;;;;;7.03;100.00;97918.97;5013875;28;20243;-81
2021/04/21 05:47:26;;;;;;;18.07;15.70;;;;;;;7.24;100.00;97920.25;5013413;28;20203;-81
2021/04/21 05:50:28;;;;;;;15.73;14.10;;;;;;;7.47;100.00;97915.31;5013895;28;20235;-81
2021/04/21 05:53:28;;;;;;;15.13;13.40;;;;;;;7.65;100.00;97918.53;5013663;28;20274;-81
2021/04/21 05:56:42;;;;;;;12.70;11.43;;;;;;;7.91;100.00;97916.81;4993318;28;20230;-81
2021/04/21 06:00:00;;;;;;;13.13;11.17;;;;;;;8.10;100.00;97896.31;5013614;28;20242;-81
2021/04/21 06:02:29;;;;;;;13.97;12.53;;;;;;;8.30;100.00;97895.81;5013638;28;20219;-81
2021/04/21 06:05:06;;;;;;;15.20;12.87;;;;;;;8.51;100.00;97880.41;5013562;28;20234;-82
2021/04/21 06:07:33;;;;;;;13.23;11.90;;;;;;;8.48;100.00;97864.91;5013242;28;20188;-81
2021/04/21 06:10:00;;;;;;;14.50;11.47;;;;;;;8.65;100.00;97845.38;5013492;28;20196;-81
2021/04/21 06:12:29;;;;;;;13.33;11.70;;;;;;;8.82;100.00;97837.16;5013150;28;20376;-81
2021/04/21 06:14:56;;;;;;;11.90;10.40;;;;;;;8.90;100.00;97833.16;5011780;28;20282;-81
2021/04/21 06:17:26;;;;;;;12.27;11.07;;;;;;;8.97;100.00;97805.53;5011983;28;20203;-81
2021/04/21 06:19:54;;;;;;;12.27;10.13;;;;;;;9.14;100.00;97772.84;5013285;28;20261;-81
2021/04/21 06:22:27;;;;;;;12.60;11.33;;;;;;;9.42;100.00;97734.91;5013194;28;20203;-80
2021/04/21 06:25:09;;;;;;;13.80;12.40;;;;;;;9.75;100.00;97698.22;5013529;28;20281;-81
2021/04/21 06:27:38;;;;;;;12.70;11.40;;;;;;;9.83;100.00;97662.66;5013078;28;20341;-81
2021/04/21 06:30:07;;;;;;;12.33;10.73;;;;;;;10.02;100.00;97614.78;5013274;28;20200;-81
2021/04/21 06:32:34;;;;;;;12.37;10.97;;;;;;;10.37;100.00;97573.38;5012999;28;20568;-82
2021/04/21 06:35:08;;;;;;;14.03;11.77;;;;;;;10.70;100.00;97521.59;5012843;28;20310;-82
2021/04/21 06:37:36;;;;;;;14.00;12.43;;;;;;;11.00;100.00;97491.03;5012923;28;20549;-81
2021/04/21 06:40:04;;;;;;;12.00;10.37;;;;;;;10.82;100.00;97432.94;5012978;28;20203;-81
2021/04/21 06:42:31;;;;;;;11.00;9.90;;;;;;;10.98;100.00;97379.84;5012779;28;20213;-81
2021/04/21 06:44:59;;;;;;;12.97;10.30;;;;;;;11.29;100.00;97342.00;5012685;28;20669;-81
2021/04/21 06:47:28;;;;;;;7.37;6.63;;;;;;;11.63;100.00;97304.72;5012821;28;20202;-81
2021/04/21 06:49:59;;;;;;;8.50;7.57;;;;;;;11.86;100.00;97242.06;5012815;28;20199;-81
2021/04/21 06:52:34;;;;;;;9.03;8.13;;;;;;;11.96;100.00;97179.63;5012757;28;20258;-82
2021/04/21 06:55:06;;;;;;;9.60;8.60;;;;;;;12.37;100.00;97138.78;5012451;28;20222;-82
2021/04/21 06:57:33;;;;;;;10.17;9.07;;;;;;;12.41;100.00;97104.22;5012500;28;20287;-82
2021/04/21 07:00:10;;;;;;;7.07;6.37;;;;;;;12.52;100.00;97060.00;5013012;28;20230;-82
2021/04/21 07:02:39;;;;;;;7.87;7.10;;;;;;;12.98;100.00;97022.91;5012229;28;20663;-82
2021/04/21 07:05:25;;;;;;;6.43;5.83;;;;;;;13.50;100.00;97002.59;5012546;28;20337;-82
2021/04/21 07:07:59;;;;;;;8.00;7.20;;;;;;;13.28;100.00;96984.69;5012476;28;20671;-81
2021/04/21 07:10:27;;;;;;;12.50;9.50;;;;;;;12.70;100.00;97019.59;5012495;28;20194;-82
2021/04/21 07:12:54;;;;;;;12.43;8.97;;;;;;;12.87;100.00;97036.38;5012132;28;20336;-83
2021/04/21 07:15:23;;;;;;;10.27;8.90;;;;;;;12.94;100.00;97048.78;5012653;28;20200;-82
2021/04/21 07:17:51;;;;;;;10.53;8.37;;;;;;;13.21;100.00;97041.72;5012577;28;20222;-82
2021/04/21 07:20:18;;;;;;;9.03;8.03;;;;;;;13.45;100.00;97035.78;5012394;28;20241;-82
2021/04/21 07:22:47;;;;;;;9.43;8.13;;;;;;;13.23;100.00;97032.66;5012276;28;20206;-82
2021/04/21 07:25:15;;;;;;;9.67;8.67;;;;;;;13.57;100.00;97032.66;5012409;28;20223;-82
2021/04/21 07:27:49;;;;;;;8.50;7.70;;;;;;;13.63;100.00;97025.13;5012146;28;20252;-82
2021/04/21 07:30:26;;;;;;;11.73;9.83;;;;;;;13.38;100.00;97017.09;5012846;28;20187;-82
2021/04/21 07:32:53;;;;;;;8.83;7.93;;;;;;;14.03;100.00;97011.22;5012091;28;20194;-82
2021/04/21 07:35:21;;;;;;;9.07;7.67;;;;;;;14.16;100.00;97008.06;5011986;28;20320;-83
2021/04/21 07:37:49;;;;;;;11.33;9.83;;;;;;;14.38;100.00;96993.41;5012030;28;20397;-82
2021/04/21 07:40:37;;;;;;;7.90;7.10;;;;;;;14.61;100.00;96993.59;5012486;28;20734;-82
2021/04/21 07:43:11;;;;;;;7.90;7.20;;;;;;;15.22;100.00;96985.06;5012243;28;20210;-82
2021/04/21 07:45:54;;;;;;;8.10;7.30;;;;;;;15.83;100.00;96984.50;5012286;28;20694;-83
2021/04/21 07:48:38;;;;;;;9.40;8.47;;;;;;;15.67;100.00;96972.19;5011775;28;20278;-82
2021/04/21 07:51:34;;;;;;;8.80;8.00;;;;;;;15.59;100.00;96962.41;5015368;28;20206;-82
2021/04/21 07:54:03;;;;;;;9.83;6.93;;;;;;;15.26;100.00;96948.47;5015894;28;20219;-82
2021/04/21 07:56:35;;;;;;;8.23;7.30;;;;;;;15.52;100.00;96952.66;5015847;28;20199;-82
2021/04/21 07:59:17;;;;;;;9.10;8.30;;;;;;;14.62;100.00;96947.66;5016000;28;20180;-82
2021/04/21 08:01:46;;;;;;;10.23;8.03;;;;;;;14.58;100.00;96947.16;5015790;28;20198;-81
2021/04/21 08:04:18;;;;;;;10.33;7.83;;;;;;;14.69;100.00;96943.34;5016007;28;20202;-82
2021/04/21 08:06:47;;;;;;;7.13;6.50;;;;;;;14.52;100.00;96947.81;5015576;28;20668;-81
2021/04/21 08:09:14;;;;;;;8.83;8.03;;;;;;;14.66;100.00;96949.78;5015759;28;20196;-82
2021/04/21 08:11:41;;;;;;;7.93;7.23;;;;;;;14.59;100.00;96942.69;5015662;28;20235;-82
2021/04/21 08:14:08;;;;;;;9.47;8.57;;;;;;;14.10;100.00;96942.63;5015599;28;20208;-82
2021/04/21 08:16:36;;;;;;;12.97;11.67;;;;;;;13.74;100.00;96962.22;5015368;28;20203;-82
2021/04/21 08:19:16;;;;;;;11.43;10.37;;;;;;;13.79;100.00;96967.06;5015906;28;20683;-82
2021/04/21 08:21:45;;;;;;;10.93;9.47;;;;;;;13.86;100.00;96973.34;5015865;28;20188;-82
2021/04/21 08:24:14;;;;;;;11.87;10.67;;;;;;;13.94;100.00;96973.34;5015532;28;20196;-82
2021/04/21 08:26:42;;;;;;;9.90;8.90;;;;;;;13.89;100.00;96975.66;5015547;28;20219;-82
2021/04/21 08:29:11;;;;;;;11.10;9.30;;;;;;;13.55;100.00;96973.09;5015218;28;20234;-82
2021/04/21 08:31:39;;;;;;;12.33;11.23;;;;;;;13.33;100.00;96971.84;5015497;28;20201;-82
2021/04/21 08:34:06;;;;;;;11.53;10.43;;;;;;;13.66;100.00;96964.88;5015152;28;20772;-82
2021/04/21 08:36:36;;;;;;;9.00;8.10;;;;;;;13.61;100.00;96968.97;5015232;28;20680;-82
2021/04/21 08:39:04;;;;;;;9.23;8.37;;;;;;;13.49;100.00;96965.81;5015018;28;20187;-83
2021/04/21 08:41:34;;;;;;;7.83;7.13;;;;;;;13.21;100.00;96971.25;5015146;28;20269;-83
2021/04/21 08:44:02;;;;;;;9.67;8.70;;;;;;;13.41;100.00;96981.63;5015182;28;20214;-83
2021/04/21 08:46:30;;;;;;;9.63;8.73;;;;;;;13.43;100.00;96977.81;5014900;28;20202;-83
2021/04/21 08:48:58;;;;;;;8.77;7.87;;;;;;;13.30;100.00;96973.00;5015436;28;20587;-83
2021/04/21 08:51:26;;;;;;;8.47;7.77;;;;;;;14.06;100.00;96965.94;5015118;28;20210;-82
2021/04/21 08:54:05;;;;;;;9.43;8.03;;;;;;;15.23;100.00;96952.28;5015069;28;20219;-82
2021/04/21 08:56:36;;;;;;;10.70;9.70;;;;;;;15.62;100.00;96940.88;5014675;28;20203;-83
2021/04/21 08:59:05;;;;;;;11.07;9.97;;;;;;;15.48;100.00;96925.69;5014895;28;20261;-83
2021/04/21 09:01:32;;;;;;;10.43;9.47;;;;;;;14.73;100.00;96928.78;5014658;28;20680;-83
2021/04/21 09:03:59;;;;;;;9.30;8.37;;;;;;;15.38;100.00;96933.03;5014731;28;20246;-83
2021/04/21 09:06:26;;;;;;;8.53;7.73;;;;;;;15.41;100.00;96930.88;5014647;28;20207;-83
2021/04/21 09:08:56;;;;;;;10.43;9.47;;;;;;;15.57;100.00;96926.50;5014801;28;20254;-83
2021/04/21 09:11:23;;;;;;;8.67;7.87;;;;;;;16.05;100.00;96903.34;5014499;28;20199;-82
2021/04/21 09:13:51;;;;;;;8.40;7.63;;;;;;;15.72;100.00;96903.56;5014757;28;20204;-84
2021/04/21 09:16:19;;;;;;;13.33;11.93;;;;;;;16.45;100.00;96904.81;5014335;28;20203;-83
2021/04/21 09:18:46;;;;;;;9.57;8.67;;;;;;;17.16;100.00;96907.13;5014389;28;20250;-81
2021/04/21 09:21:18;;;;;;;45.33;35.33;;;;;;;16.51;100.00;96892.69;5015104;28;20654;-82
2021/04/21 09:23:47;;;;;;;14.80;13.50;;;;;;;16.27;100.00;96897.19;5014338;28;20582;-83
2021/04/21 09:26:17;;;;;;;10.23;8.57;;;;;;;15.85;100.00;96889.75;5014597;28;20588;-82
2021/04/21 09:28:46;;;;;;;11.07;8.00;;;;;;;15.84;100.00;96891.56;5014285;28;20241;-82
2021/04/21 09:31:17;;;;;;;7.83;7.13;;;;;;;16.26;100.00;96881.47;5014363;28;20567;-82
2021/04/21 09:33:45;;;;;;;10.60;7.83;;;;;;;17.16;100.00;96869.94;5014067;28;20596;-82
2021/04/21 09:36:12;;;;;;;8.47;7.60;;;;;;;17.30;100.00;96858.47;5014264;28;20249;-82
2021/04/21 09:38:40;;;;;;;8.50;7.70;;;;;;;17.54;100.00;96852.81;5013884;28;20279;-82
2021/04/21 09:41:19;;;;;;;8.57;7.60;;;;;;;17.04;100.00;96843.88;5014485;28;20223;-83
2021/04/21 09:43:46;;;;;;;9.50;7.77;;;;;;;17.31;100.00;96852.97;5014093;28;20566;-83
2021/04/21 09:46:17;;;;;;;7.77;6.97;;;;;;;17.67;100.00;96848.66;5014639;28;20248;-82
2021/04/21 09:48:46;;;;;;;6.67;6.07;;;;;;;17.74;100.00;96847.72;5013833;28;20207;-83
2021/04/21 09:51:14;;;;;;;7.67;6.97;;;;;;;17.07;100.00;96838.16;5013972;28;20209;-82
2021/04/21 09:53:42;;;;;;;6.77;6.17;;;;;;;16.00;100.00;96857.97;5013760;28;20247;-82
2021/04/21 09:56:12;;;;;;;5.87;4.63;;;;;;;15.01;100.00;96860.38;5013957;28;20207;-81
2021/04/21 09:58:42;;;;;;;3.20;2.40;;;;;;;14.16;100.00;96854.75;5013728;28;20205;-83
2021/04/21 10:01:24;;;;;;;3.03;2.83;;;;;;;13.73;100.00;96880.50;5013779;28;20251;-83
2021/04/21 10:04:15;;;;;;;2.17;2.07;;;;;;;13.24;100.00;96904.16;5013684;28;20223;-83
2021/04/21 10:06:44;;;;;;;5.57;4.37;;;;;;;13.28;100.00;96898.41;5013856;28;20717;-82
2021/04/21 10:09:26;;;;;;;2.67;2.47;;;;;;;12.66;100.00;96895.13;5013525;28;20196;-83
2021/04/21 10:12:12;;;;;;;3.67;3.27;;;;;;;12.56;100.00;96905.75;5012595;28;20234;-83
2021/04/21 10:14:41;;;;;;;3.93;3.17;;;;;;;12.55;100.00;96877.75;5013410;28;20708;-83
2021/04/21 10:17:08;;;;;;;2.60;2.40;;;;;;;12.57;100.00;96888.97;5013141;28;20195;-83
2021/04/21 10:19:36;;;;;;;8.60;7.70;;;;;;;12.40;100.00;96889.84;5013375;28;20199;-83
2021/04/21 10:22:03;;;;;;;4.00;3.70;;;;;;;12.78;100.00;96877.19;5013023;28;20203;-82
2021/04/21 10:24:31;;;;;;;2.83;2.63;;;;;;;13.01;100.00;96873.03;5013643;28;20555;-83
2021/04/21 10:26:58;;;;;;;2.87;2.60;;;;;;;13.17;100.00;96868.81;5012967;28;20207;-83
2021/04/21 10:29:26;;;;;;;4.00;3.40;;;;;;;14.41;100.00;96864.31;5012957;28;20198;-83
2021/04/21 10:31:54;;;;;;;6.60;3.30;;;;;;;15.57;100.00;96862.91;5012950;28;20219;-83
2021/04/21 10:34:22;;;;;;;5.43;3.03;;;;;;;15.82;100.00;96781.41;5013153;28;20219;-83
2021/04/21 10:36:50;;;;;;;2.87;2.67;;;;;;;16.27;100.00;96731.94;5012532;28;20203;-82
2021/04/21 10:39:29;;;;;;;2.80;2.60;;;;;;;16.51;100.00;96713.06;5013358;28;20199;-82
2021/04/21 10:42:09;;;;;;;2.80;2.60;;;;;;;16.63;100.00;96690.38;5012806;28;20192;-80
2021/04/21 10:44:36;;;;;;;3.03;2.80;;;;;;;16.95;100.00;96682.19;5013018;28;20203;-81
2021/04/21 10:47:10;;;;;;;3.17;2.83;;;;;;;16.73;100.00;96657.38;5012965;28;20243;-80
2021/04/21 10:49:44;;;;;;;3.40;2.10;;;;;;;16.11;100.00;96650.75;5012755;28;20192;-81
2021/04/21 10:52:13;;;;;;;2.03;1.93;;;;;;;15.66;100.00;96522.72;5012607;28;20193;-80
2021/04/21 10:54:40;;;;;;;3.80;2.43;;;;;;;15.54;100.00;96508.25;5012872;28;20231;-80
2021/04/21 10:57:26;;;;;;;3.90;3.47;;;;;;;15.46;100.00;96607.19;5013053;28;20633;-80
2021/04/21 11:00:14;;;;;;;3.57;1.90;;;;;;;15.86;100.00;96674.88;5012372;28;20203;-80
2021/04/21 11:03:06;;;;;;;2.57;2.37;;;;;;;15.95;100.00;96760.44;5012539;28;20204;-80
2021/04/21 11:05:45;;;;;;;6.43;3.33;;;;;;;16.60;100.00;96786.28;5013458;28;20197;-81
2021/04/21 11:08:15;;;;;;;2.57;2.37;;;;;;;16.76;100.00;96811.81;5012607;28;20329;-81
2021/04/21 11:10:45;;;;;;;2.47;2.27;;;;;;;16.55;100.00;96820.47;5012622;28;20296;-81
2021/04/21 11:13:14;;;;;;;3.23;2.93;;;;;;;16.23;100.00;96821.66;5012088;28;20718;-81
2021/04/21 11:15:43;;;;;;;3.57;3.27;;;;;;;15.77;100.00;96829.66;5012266;28;20228;-81
2021/04/21 11:18:25;;;;;;;2.77;2.57;;;;;;;15.86;100.00;96802.09;5012559;28;20198;-82
2021/04/21 11:20:57;;;;;;;3.77;3.47;;;;;;;15.96;100.00;96777.97;5012525;28;20247;-82
2021/04/21 11:23:50;;;;;;;2.83;2.63;;;;;;;15.80;100.00;96805.47;5012054;28;20197;-82
2021/04/21 11:26:41;;;;;;;3.20;3.00;;;;;;;15.75;100.00;96839.59;5012424;28;20247;-82
2021/04/21 11:29:11;;;;;;;3.20;2.43;;;;;;;15.71;100.00;96838.31;5012351;28;20233;-82
2021/04/21 11:32:09;;;;;;;3.27;2.97;;;;;;;15.93;100.00;96836.66;5012277;28;20276;-82
2021/04/21 11:34:39;;;;;;;3.20;2.70;;;;;;;16.53;100.00;96797.81;5012145;28;20668;-82
2021/04/21 11:37:08;;;;;;;2.83;2.63;;;;;;;16.93;100.00;96774.47;5012046;28;20233;-81
2021/04/21 11:42:45;;;;;;;3.17;2.97;;;;;;;15.95;100.00;96756.97;5005325;28;20206;-82
2021/04/21 11:45:25;;;;;;;3.50;3.20;;;;;;;15.77;100.00;96683.09;5012070;28;20194;-81
2021/04/21 11:47:54;;;;;;;3.57;3.27;;;;;;;15.42;100.00;96635.84;5012008;28;20221;-82
2021/04/21 11:50:28;;;;;;;4.30;3.13;;;;;;;15.26;100.00;96654.53;5012109;28;20201;-82
2021/04/21 11:53:03;;;;;;;3.30;3.00;;;;;;;14.95;100.00;96638.72;5012243;28;20280;-82
2021/04/21 11:55:50;;;;;;;4.00;3.60;;;;;;;14.67;100.00;96665.69;5012019;28;20300;-81
2021/04/21 11:58:19;;;;;;;2.77;2.57;;;;;;;14.57;100.00;96637.81;5012448;28;20216;-83